createdAt,value
2022-12-03T00:03:00.361Z,82.98
2022-12-03T00:09:05.457Z,82.18
2022-12-03T00:15:08.222Z,82.74
2022-12-03T00:21:10.707Z,82.08
2022-12-03T00:27:13.236Z,82.65
2022-12-03T00:33:15.650Z,83.06
2022-12-03T00:39:21.401Z,83.71
2022-12-03T00:45:23.610Z,84.10
2022-12-03T00:51:26.031Z,84.15
2022-12-03T00:57:30.538Z,84.39
2022-12-03T01:03:35.356Z,83.62
2022-12-03T01:09:37.518Z,83.59
2022-12-03T01:15:39.974Z,83.51
2022-12-03T01:21:45.178Z,83.00
2022-12-03T01:27:47.980Z,83.51
2022-12-03T01:33:50.425Z,83.25
2022-12-03T01:39:57.781Z,84.02
2022-12-03T01:46:00.313Z,82.79
2022-12-03T01:52:02.778Z,83.32
2022-12-03T01:58:05.288Z,82.94
2022-12-03T02:04:09.764Z,82.13
2022-12-03T02:10:16.202Z,82.69
2022-12-03T02:16:22.475Z,83.54
2022-12-03T02:22:56.334Z,82.82
2022-12-03T02:28:58.811Z,83.66
2022-12-03T02:35:02.741Z,83.44
2022-12-03T02:41:09.745Z,83.45
2022-12-03T02:47:12.280Z,82.87
2022-12-03T02:53:19.752Z,82.70
2022-12-03T02:59:22.220Z,82.43
2022-12-03T03:05:28.042Z,83.08
2022-12-03T03:11:30.151Z,83.28
2022-12-03T03:17:33.610Z,84.46
2022-12-03T03:23:36.084Z,83.37
2022-12-03T03:29:38.595Z,84.50
2022-12-03T03:35:42.021Z,83.23
2022-12-03T03:41:46.503Z,83.86
2022-12-03T03:47:51.083Z,83.45
2022-12-03T03:53:58.992Z,83.54
2022-12-03T04:00:10.227Z,82.96
2022-12-03T04:06:13.517Z,83.00
2022-12-03T04:12:34.065Z,83.54
2022-12-03T04:18:45.552Z,83.31
2022-12-03T04:24:48.030Z,83.22
2022-12-03T04:30:52.534Z,83.24
2022-12-03T04:37:00.926Z,83.75
2022-12-03T04:43:08.816Z,83.39
2022-12-03T04:49:13.997Z,83.31
2022-12-03T04:55:16.435Z,82.85
2022-12-03T05:01:18.912Z,83.03
2022-12-03T05:07:21.383Z,83.36
2022-12-03T05:13:25.851Z,83.39
2022-12-03T05:19:48.377Z,83.25
2022-12-03T05:25:52.874Z,83.19
2022-12-03T05:31:57.183Z,83.20
2022-12-03T05:37:59.872Z,83.50
2022-12-03T05:44:02.308Z,83.36
2022-12-03T05:50:07.599Z,83.60
2022-12-03T05:56:13.022Z,83.39
2022-12-03T06:02:17.921Z,83.34
2022-12-03T06:08:20.178Z,83.54
2022-12-03T06:14:24.737Z,83.21
2022-12-03T06:20:29.205Z,83.46
2022-12-03T06:26:31.715Z,83.53
2022-12-03T06:32:34.134Z,83.26
2022-12-03T06:38:36.602Z,83.57
2022-12-03T06:44:43.543Z,82.85
2022-12-03T06:50:45.660Z,82.97
2022-12-03T06:56:53.957Z,83.25
2022-12-03T07:02:56.642Z,83.25
2022-12-03T07:08:59.038Z,83.14
2022-12-03T07:15:04.725Z,83.22
2022-12-03T07:21:06.997Z,83.50
2022-12-03T07:27:12.491Z,83.50
2022-12-03T07:33:16.011Z,83.42
2022-12-03T07:39:21.468Z,83.22
2022-12-03T07:45:27.145Z,82.85
2022-12-03T07:51:34.317Z,82.64
2022-12-03T07:57:36.931Z,83.18
2022-12-03T08:03:40.593Z,83.25
2022-12-03T08:09:47.752Z,83.01
2022-12-03T08:16:06.583Z,83.13
2022-12-03T08:22:45.104Z,82.30
2022-12-03T08:28:45.751Z,82.24
2022-12-03T08:34:48.039Z,82.92
2022-12-03T08:40:53.506Z,82.57
2022-12-03T08:47:15.332Z,82.87
2022-12-03T08:54:01.930Z,83.00
2022-12-03T09:00:24.510Z,82.20
2022-12-03T09:06:28.712Z,82.46
2022-12-03T09:12:31.281Z,82.10
2022-12-03T09:18:36.390Z,81.90
2022-12-03T09:24:41.288Z,83.16
2022-12-03T09:30:43.716Z,82.58
2022-12-03T09:36:48.107Z,82.97
2022-12-03T09:42:53.693Z,82.06
2022-12-03T09:49:06.621Z,81.97
2022-12-03T09:55:22.695Z,81.79
2022-12-03T10:01:35.561Z,81.93
2022-12-03T10:07:38.691Z,82.60
2022-12-03T10:13:42.147Z,82.47
2022-12-03T10:19:45.636Z,82.66
2022-12-03T10:25:56.140Z,82.63
2022-12-03T10:32:06.680Z,81.96
2022-12-03T10:38:32.653Z,81.59
2022-12-03T10:44:37.811Z,81.61
2022-12-03T10:51:02.456Z,81.53
2022-12-03T10:57:05.873Z,80.36
2022-12-03T11:03:22.299Z,80.61
2022-12-03T11:09:29.902Z,79.58
2022-12-03T11:15:54.716Z,80.47
2022-12-03T11:22:08.980Z,81.00
2022-12-03T11:28:13.257Z,80.51
2022-12-03T11:34:39.751Z,81.10
2022-12-03T11:41:07.570Z,80.74
2022-12-03T11:47:18.154Z,80.98
2022-12-03T11:53:27.600Z,80.83
2022-12-03T11:59:33.125Z,80.33
2022-12-03T12:06:09.708Z,80.76
2022-12-03T12:12:29.230Z,80.24
2022-12-03T12:18:35.701Z,80.72
2022-12-03T12:24:47.216Z,80.62
2022-12-03T12:30:49.687Z,80.74
2022-12-03T12:36:53.144Z,80.11
2022-12-03T12:42:58.662Z,80.64
2022-12-03T12:49:03.001Z,80.60
2022-12-03T12:55:10.677Z,80.09
2022-12-03T13:01:21.181Z,80.40
2022-12-03T13:07:23.638Z,80.13
2022-12-03T13:13:44.200Z,80.23
2022-12-03T13:20:00.790Z,80.28
2022-12-03T13:26:36.026Z,80.37
2022-12-03T13:32:44.360Z,80.71
2022-12-03T13:38:53.278Z,80.79
2022-12-03T13:44:57.855Z,80.67
2022-12-03T13:51:14.374Z,81.11
2022-12-03T13:57:18.450Z,80.75
2022-12-03T14:03:24.359Z,80.67
2022-12-03T14:09:26.822Z,80.14
2022-12-03T14:15:29.339Z,80.59
2022-12-03T14:21:31.761Z,80.69
2022-12-03T14:27:35.564Z,80.30
2022-12-03T14:33:37.710Z,80.45
2022-12-03T14:39:40.185Z,79.87
2022-12-03T14:45:45.702Z,79.82
2022-12-03T14:51:50.044Z,80.58
2022-12-03T14:57:52.631Z,79.84
2022-12-03T15:03:55.068Z,80.38
2022-12-03T15:09:57.804Z,80.22
2022-12-03T15:16:08.108Z,80.34
2022-12-03T15:22:10.572Z,80.79
2022-12-03T15:28:13.043Z,80.74
2022-12-03T15:34:21.830Z,80.13
2022-12-03T15:40:26.031Z,80.69
2022-12-03T15:46:29.627Z,80.10
2022-12-03T15:52:34.003Z,80.26
2022-12-03T15:58:39.490Z,79.92
2022-12-03T16:04:41.936Z,79.53
2022-12-03T16:10:44.413Z,80.20
2022-12-03T16:16:47.882Z,80.30
2022-12-03T16:22:50.389Z,79.82
2022-12-03T16:28:53.822Z,79.55
2022-12-03T16:34:59.339Z,79.95
2022-12-03T16:41:02.776Z,79.77
2022-12-03T16:47:05.265Z,79.87
2022-12-03T16:53:07.738Z,78.77
2022-12-03T16:59:10.236Z,79.92
2022-12-03T17:05:17.692Z,79.66
2022-12-03T17:11:21.789Z,79.58
2022-12-03T17:17:25.676Z,79.57
2022-12-03T17:23:28.145Z,79.74
2022-12-03T17:29:30.672Z,79.94
2022-12-03T17:35:34.835Z,79.85
2022-12-03T17:41:42.861Z,79.31
2022-12-03T17:47:45.054Z,79.91
2022-12-03T17:53:47.505Z,79.86
2022-12-03T18:00:01.333Z,79.78
2022-12-03T18:06:07.732Z,79.76
2022-12-03T18:12:16.024Z,79.91
2022-12-03T18:18:18.518Z,79.78
2022-12-03T18:24:28.016Z,79.30
2022-12-03T18:30:30.495Z,79.54
2022-12-03T18:36:37.001Z,79.77
2022-12-03T18:42:39.505Z,79.67
2022-12-03T18:48:46.984Z,79.72
2022-12-03T18:54:50.528Z,78.90
2022-12-03T19:00:56.039Z,79.02
2022-12-03T19:06:58.401Z,79.27
2022-12-03T19:13:00.870Z,78.63
2022-12-03T19:19:09.336Z,78.74
2022-12-03T19:25:14.016Z,79.17
2022-12-03T19:31:18.324Z,79.32
2022-12-03T19:37:20.807Z,79.40
2022-12-03T19:43:26.295Z,79.68
2022-12-03T19:49:28.721Z,78.89
2022-12-03T19:55:31.195Z,79.14
2022-12-03T20:01:41.786Z,79.70
2022-12-03T20:07:44.235Z,79.61
2022-12-03T20:13:50.078Z,80.08
2022-12-03T20:19:53.582Z,79.61
2022-12-03T20:25:56.620Z,79.19
2022-12-03T20:32:00.226Z,79.99
2022-12-03T20:38:04.560Z,79.58
2022-12-03T20:44:08.120Z,80.20
2022-12-03T20:50:10.603Z,80.63
2022-12-03T20:56:22.111Z,81.33
2022-12-03T21:02:24.704Z,82.66
2022-12-03T21:08:40.576Z,83.22
2022-12-03T21:14:44.572Z,83.27
2022-12-03T21:20:49.039Z,82.99
2022-12-03T21:26:51.540Z,83.72
2022-12-03T21:32:54.019Z,82.99
2022-12-03T21:38:59.473Z,82.74
2022-12-03T21:45:04.926Z,82.91
2022-12-03T21:51:10.440Z,82.86
2022-12-03T21:57:12.938Z,82.73
2022-12-03T22:03:15.481Z,82.58
2022-12-03T22:09:20.542Z,82.60
2022-12-03T22:15:27.336Z,82.41
2022-12-03T22:21:33.051Z,82.67
2022-12-03T22:27:36.348Z,82.61
2022-12-03T22:33:39.824Z,82.88
2022-12-03T22:39:42.305Z,82.57
2022-12-03T22:45:44.734Z,83.05
2022-12-03T22:51:48.189Z,83.30
2022-12-03T22:57:50.632Z,83.80
2022-12-03T23:03:55.580Z,83.99
2022-12-03T23:09:58.933Z,83.46
2022-12-03T23:16:04.192Z,83.70
2022-12-03T23:22:06.534Z,83.95
2022-12-03T23:28:11.013Z,84.06
2022-12-03T23:34:16.098Z,84.40
2022-12-03T23:40:18.996Z,83.89
2022-12-03T23:46:28.191Z,84.04
2022-12-03T23:52:30.978Z,83.55
2022-12-03T23:58:34.434Z,84.42
